Time;durP1;ratioP1;P1;durP2;ratioP2;P2;SDS_P1;SDS_P2;PMS_P1;PMS_P2;Temp;Humidity;BMP_temperature;BMP_pressure;BME280_temperature;BME280_humidity;BME280_pressure;Samples;Min_cycle;Max_cycle;Signal;HPM_P1;HPM_P2
2022/02/26 00:01:45;;;;;;;14.32;9.50;;;-0.10;89.40;;;;;;4994829;28;20070;-80
2022/02/26 00:04:12;;;;;;;16.80;10.05;;;0.00;89.40;;;;;;5013039;28;20433;-80
2022/02/26 00:06:38;;;;;;;15.57;9.15;;;0.00;89.10;;;;;;5014531;28;20050;-80
2022/02/26 00:09:05;;;;;;;13.02;8.38;;;0.10;88.70;;;;;;5013286;28;20026;-80
2022/02/26 00:11:32;;;;;;;14.88;9.73;;;0.10;88.70;;;;;;5013049;28;20034;-80
2022/02/26 00:13:58;;;;;;;;;;;0.10;88.40;;;;;;4999510;28;20542;-80
2022/02/26 00:16:24;;;;;;;16.45;8.32;;;0.10;88.30;;;;;;4997142;28;19937;-81
2022/02/26 00:18:50;;;;;;;14.25;9.07;;;0.10;88.30;;;;;;5013962;28;20364;-81
2022/02/26 00:21:15;;;;;;;15.30;8.50;;;0.10;88.40;;;;;;5011619;28;20117;-81
2022/02/26 00:23:43;;;;;;;15.32;8.63;;;0.20;88.40;;;;;;5017841;28;20045;-81
2022/02/26 00:26:10;;;;;;;18.27;8.90;;;0.20;88.40;;;;;;5018217;28;20438;-81
2022/02/26 00:28:36;;;;;;;15.52;9.52;;;0.20;88.30;;;;;;5030872;28;20034;-81
2022/02/26 00:31:02;;;;;;;13.13;7.80;;;0.30;88.20;;;;;;5028817;28;20030;-79
2022/02/26 00:33:28;;;;;;;13.85;8.85;;;0.40;88.00;;;;;;5022083;28;20071;-81
2022/02/26 00:35:58;;;;;;;16.65;9.10;;;0.40;87.80;;;;;;4995638;28;20133;-80
2022/02/26 00:38:24;;;;;;;12.82;10.10;;;0.40;87.80;;;;;;5013466;28;20486;-82
2022/02/26 00:40:50;;;;;;;13.63;8.90;;;0.50;88.00;;;;;;5014036;28;20030;-81
2022/02/26 00:43:16;;;;;;;11.63;7.60;;;0.40;87.40;;;;;;5024271;28;20057;-80
2022/02/26 00:45:42;;;;;;;16.20;8.80;;;0.40;87.40;;;;;;5007088;28;20078;-80
2022/02/26 00:48:07;;;;;;;14.85;9.32;;;0.30;87.40;;;;;;5009066;28;20023;-80
2022/02/26 00:50:33;;;;;;;15.23;9.10;;;0.30;87.50;;;;;;5010064;28;20042;-80
2022/02/26 00:52:59;;;;;;;15.48;10.88;;;0.30;87.50;;;;;;5017431;28;20022;-80
2022/02/26 00:55:25;;;;;;;17.83;9.73;;;0.20;87.70;;;;;;5024114;28;20056;-81
2022/02/26 00:57:51;;;;;;;12.32;7.93;;;0.30;87.70;;;;;;4999709;28;20451;-81
2022/02/26 01:00:17;;;;;;;13.00;7.88;;;0.30;87.60;;;;;;5010454;28;20014;-82
2022/02/26 01:02:42;;;;;;;11.52;8.75;;;0.30;87.60;;;;;;4997458;28;20387;-83
2022/02/26 01:05:10;;;;;;;14.60;8.50;;;0.30;87.80;;;;;;4996963;28;20034;-83
2022/02/26 01:07:36;;;;;;;18.38;10.48;;;0.40;88.30;;;;;;5003341;28;20034;-80
2022/02/26 01:10:03;;;;;;;16.77;9.90;;;0.40;88.20;;;;;;5011692;28;20134;-81
2022/02/26 01:12:29;;;;;;;14.55;8.75;;;0.40;87.60;;;;;;5014506;28;20607;-82
2022/02/26 01:14:55;;;;;;;13.07;8.90;;;0.40;87.40;;;;;;4983194;28;20053;-82
2022/02/26 01:17:21;;;;;;;13.77;8.48;;;0.40;87.30;;;;;;5017572;28;20030;-83
2022/02/26 01:19:48;;;;;;;15.15;8.73;;;0.40;87.40;;;;;;4998605;28;20022;-82
2022/02/26 01:22:14;;;;;;;15.48;9.65;;;0.40;87.40;;;;;;5015962;28;20030;-81
2022/02/26 01:24:40;;;;;;;14.07;9.55;;;0.50;87.50;;;;;;5015957;28;20054;-82
2022/02/26 01:27:06;;;;;;;12.75;9.02;;;0.40;87.40;;;;;;5016558;28;20053;-83
2022/02/26 01:29:32;;;;;;;11.88;8.48;;;0.40;87.50;;;;;;5024174;28;20022;-82
2022/02/26 01:31:58;;;;;;;16.27;10.23;;;0.50;87.60;;;;;;5010624;28;20045;-82
2022/02/26 01:34:24;;;;;;;14.98;9.20;;;0.50;87.60;;;;;;5016553;28;20116;-81
2022/02/26 01:36:49;;;;;;;15.57;8.40;;;0.50;87.50;;;;;;5017526;28;20109;-80
2022/02/26 01:39:19;;;;;;;13.38;7.57;;;0.50;87.50;;;;;;5015316;28;20030;-83
2022/02/26 01:41:44;;;;;;;11.65;8.82;;;0.50;87.70;;;;;;5015484;28;20675;-82
2022/02/26 01:44:10;;;;;;;17.17;7.47;;;0.50;87.80;;;;;;5015250;28;20072;-81
2022/02/26 01:46:36;;;;;;;14.98;8.73;;;0.50;87.60;;;;;;5013385;28;20057;-81
2022/02/26 01:49:03;;;;;;;12.25;8.00;;;0.60;87.60;;;;;;5014900;28;20460;-81
2022/02/26 01:51:29;;;;;;;15.90;8.73;;;0.60;87.50;;;;;;5015109;28;20038;-80
2022/02/26 01:53:54;;;;;;;14.80;8.65;;;0.60;87.40;;;;;;4997682;28;20022;-81
2022/02/26 01:56:20;;;;;;;14.10;8.98;;;0.60;87.40;;;;;;5010997;28;20022;-81
2022/02/26 01:58:46;;;;;;;13.88;9.30;;;0.60;87.30;;;;;;5007734;28;20399;-81
2022/02/26 02:01:12;;;;;;;13.23;9.55;;;0.70;87.20;;;;;;5016211;28;20065;-81
2022/02/26 02:03:39;;;;;;;14.27;7.78;;;0.70;87.30;;;;;;5017408;28;20097;-77
2022/02/26 02:06:05;;;;;;;11.15;7.97;;;0.60;87.00;;;;;;5020697;28;20033;-79
2022/02/26 02:08:31;;;;;;;13.63;8.30;;;0.60;87.20;;;;;;5030498;28;20072;-82
2022/02/26 02:10:57;;;;;;;16.33;9.65;;;0.60;87.40;;;;;;5014662;28;20503;-82
2022/02/26 02:13:23;;;;;;;15.07;9.07;;;0.70;87.30;;;;;;5014695;28;20021;-81
2022/02/26 02:15:54;;;;;;;14.93;8.25;;;0.60;87.00;;;;;;4995809;28;20698;-82
2022/02/26 02:18:21;;;;;;;14.40;8.88;;;0.70;87.20;;;;;;4994747;28;20037;-81
2022/02/26 02:20:47;;;;;;;14.35;9.73;;;0.70;87.20;;;;;;4994719;28;20391;-82
2022/02/26 02:23:13;;;;;;;13.63;7.68;;;0.80;87.20;;;;;;4977530;28;20026;-79
2022/02/26 02:25:39;;;;;;;12.80;8.00;;;0.80;87.10;;;;;;4998446;28;20027;-80
2022/02/26 02:28:07;;;;;;;13.70;8.95;;;0.80;86.80;;;;;;5005050;28;20029;-82
2022/02/26 02:30:33;;;;;;;14.02;9.32;;;0.80;86.90;;;;;;5013649;28;20080;-81
2022/02/26 02:32:59;;;;;;;10.45;7.68;;;0.80;87.00;;;;;;5014574;28;20365;-80
2022/02/26 02:35:29;;;;;;;14.18;8.10;;;0.80;87.00;;;;;;5014567;28;20431;-80
2022/02/26 02:37:55;;;;;;;12.05;7.60;;;0.80;86.80;;;;;;5014032;28;20028;-81
2022/02/26 02:40:22;;;;;;;11.13;7.50;;;0.80;86.70;;;;;;5014147;28;20017;-81
2022/02/26 02:42:48;;;;;;;11.50;7.93;;;0.80;86.70;;;;;;5014405;28;20025;-82
2022/02/26 02:45:14;;;;;;;12.73;7.88;;;0.80;86.70;;;;;;5013677;28;20041;-81
2022/02/26 02:47:40;;;;;;;13.15;8.57;;;0.80;86.90;;;;;;5013705;28;20022;-81
2022/02/26 02:50:06;;;;;;;12.07;8.75;;;0.80;86.80;;;;;;5013523;28;20030;-82
2022/02/26 02:52:32;;;;;;;13.82;8.25;;;0.80;86.90;;;;;;4991188;28;20030;-82
2022/02/26 02:54:58;;;;;;;12.43;9.25;;;0.80;86.90;;;;;;4978308;28;20495;-79
2022/02/26 02:57:24;;;;;;;12.32;8.02;;;0.80;86.90;;;;;;4994968;28;20027;-82
2022/02/26 02:59:49;;;;;;;12.63;8.20;;;0.80;86.80;;;;;;4996643;28;20027;-82
2022/02/26 03:02:15;;;;;;;12.07;8.68;;;0.80;86.90;;;;;;4994130;28;20395;-79
2022/02/26 03:04:41;;;;;;;10.45;7.68;;;0.80;86.90;;;;;;4996866;28;20049;-82
2022/02/26 03:07:07;;;;;;;13.15;9.63;;;0.80;86.90;;;;;;5001278;28;20029;-78
2022/02/26 03:09:32;;;;;;;13.88;9.15;;;0.90;86.90;;;;;;5011742;28;20049;-80
2022/02/26 03:11:58;;;;;;;11.57;7.35;;;0.90;86.90;;;;;;4998776;28;20090;-82
2022/02/26 03:14:24;;;;;;;12.75;7.53;;;0.90;86.90;;;;;;5020447;28;20022;-81
2022/02/26 03:16:50;;;;;;;11.63;8.20;;;0.90;86.80;;;;;;5020993;28;20018;-79
2022/02/26 03:19:15;;;;;;;14.13;9.00;;;1.00;86.80;;;;;;5033375;28;20030;-81
2022/02/26 03:21:41;;;;;;;15.57;9.10;;;1.00;86.60;;;;;;5019664;28;20065;-81
2022/02/26 03:24:10;;;;;;;13.00;8.65;;;1.00;86.60;;;;;;4998089;28;20092;-81
2022/02/26 03:26:37;;;;;;;22.67;13.23;;;1.00;86.60;;;;;;5018673;28;20018;-82
2022/02/26 03:29:03;;;;;;;16.85;9.13;;;0.90;86.50;;;;;;5017791;28;20383;-81
2022/02/26 03:31:29;;;;;;;13.07;9.40;;;0.80;86.70;;;;;;5012974;28;20038;-82
2022/02/26 03:33:55;;;;;;;15.68;8.98;;;0.80;86.80;;;;;;5013206;28;20395;-83
2022/02/26 03:36:20;;;;;;;12.45;8.75;;;0.80;86.90;;;;;;5012939;28;20114;-81
2022/02/26 03:38:46;;;;;;;16.13;8.23;;;0.80;87.10;;;;;;5013108;28;20467;-82
2022/02/26 03:41:14;;;;;;;14.02;8.23;;;0.80;87.30;;;;;;5012927;28;20037;-81
2022/02/26 03:43:40;;;;;;;13.80;8.48;;;0.90;87.20;;;;;;5012856;28;20049;-81
2022/02/26 03:46:06;;;;;;;15.40;9.68;;;0.90;87.30;;;;;;5012768;28;20080;-81
2022/02/26 03:48:32;;;;;;;14.82;9.43;;;0.80;87.20;;;;;;5013296;28;20026;-81
2022/02/26 03:51:04;;;;;;;14.02;7.97;;;0.80;87.50;;;;;;5013377;28;20558;-81
2022/02/26 03:53:30;;;;;;;12.15;8.77;;;0.80;87.50;;;;;;5012252;28;20058;-81
2022/02/26 03:55:57;;;;;;;9.53;6.33;;;0.80;87.50;;;;;;5012106;28;20034;-82
2022/02/26 03:58:22;;;;;;;13.73;9.57;;;0.80;87.50;;;;;;5012966;28;20022;-84
2022/02/26 04:00:48;;;;;;;13.20;8.57;;;0.80;87.80;;;;;;5013084;28;20505;-83
2022/02/26 04:03:14;;;;;;;19.00;9.70;;;0.80;88.10;;;;;;5017931;28;20033;-82
2022/02/26 04:05:40;;;;;;;14.25;9.70;;;0.70;88.40;;;;;;5029838;28;20038;-83
2022/02/26 04:08:05;;;;;;;15.23;9.27;;;0.60;88.90;;;;;;5021928;28;20426;-81
2022/02/26 04:10:31;;;;;;;14.75;8.52;;;0.60;89.60;;;;;;5013278;28;20390;-82
2022/02/26 04:12:57;;;;;;;15.52;10.07;;;0.50;90.10;;;;;;5012730;28;20026;-82
2022/02/26 04:15:23;;;;;;;17.73;11.00;;;0.40;90.50;;;;;;5013704;28;20033;-82
2022/02/26 04:17:48;;;;;;;14.70;10.00;;;0.40;90.80;;;;;;5015927;28;20022;-81
2022/02/26 04:20:15;;;;;;;18.75;9.55;;;0.40;91.10;;;;;;5022833;28;20022;-81
2022/02/26 04:22:40;;;;;;;15.00;9.40;;;0.40;91.30;;;;;;5013514;28;20033;-81
2022/02/26 04:25:07;;;;;;;15.02;10.27;;;0.40;91.40;;;;;;5012849;28;20530;-81
2022/02/26 04:27:33;;;;;;;16.13;10.85;;;0.40;91.60;;;;;;5012230;28;20038;-81
2022/02/26 04:29:59;;;;;;;15.00;9.80;;;0.30;91.70;;;;;;5012980;28;20080;-81
2022/02/26 04:32:25;;;;;;;12.43;9.35;;;0.30;91.80;;;;;;4997054;28;20118;-80
2022/02/26 04:34:51;;;;;;;19.38;10.57;;;0.20;91.90;;;;;;4997057;28;20105;-80
2022/02/26 04:37:20;;;;;;;16.00;10.88;;;0.20;92.10;;;;;;4997751;28;20046;-81
2022/02/26 04:39:47;;;;;;;16.52;10.25;;;0.20;92.30;;;;;;4997163;28;20086;-81
2022/02/26 04:42:13;;;;;;;15.73;8.98;;;0.10;92.50;;;;;;4996500;28;20022;-81
2022/02/26 04:44:39;;;;;;;15.55;10.43;;;0.10;92.60;;;;;;4998706;28;20026;-79
2022/02/26 04:47:06;;;;;;;18.65;11.23;;;0.00;92.60;;;;;;5000436;28;20510;-81
2022/02/26 04:49:31;;;;;;;13.80;9.03;;;-0.10;92.80;;;;;;4996736;28;20549;-82
2022/02/26 04:51:58;;;;;;;18.25;11.75;;;-0.10;92.80;;;;;;4996371;28;20309;-83
2022/02/26 04:54:24;;;;;;;18.25;12.63;;;-0.10;93.10;;;;;;4996915;28;20014;-81
2022/02/26 04:56:50;;;;;;;20.38;10.90;;;-0.10;93.20;;;;;;4996377;28;20030;-81
2022/02/26 04:59:16;;;;;;;17.73;12.00;;;-0.10;93.30;;;;;;5013234;28;20088;-80
2022/02/26 05:01:41;;;;;;;16.55;11.32;;;-0.20;93.30;;;;;;5015681;28;20498;-80
2022/02/26 05:04:07;;;;;;;17.90;11.27;;;-0.10;93.50;;;;;;5016247;28;20026;-81
2022/02/26 05:06:33;;;;;;;18.20;10.15;;;-0.10;93.70;;;;;;5027041;28;20010;-81
2022/02/26 05:08:59;;;;;;;15.45;10.07;;;0.00;93.70;;;;;;5030275;28;20025;-82
2022/02/26 05:11:25;;;;;;;19.73;11.48;;;0.00;93.80;;;;;;5000903;28;20038;-81
2022/02/26 05:13:51;;;;;;;16.27;10.90;;;0.10;93.80;;;;;;4995968;28;20023;-82
2022/02/26 05:16:16;;;;;;;19.88;11.00;;;0.10;93.90;;;;;;4997788;28;20180;-80
2022/02/26 05:18:42;;;;;;;18.35;11.15;;;0.30;94.00;;;;;;4996971;28;20499;-81
2022/02/26 05:21:08;;;;;;;15.90;10.65;;;0.40;93.90;;;;;;5006450;28;20026;-81
2022/02/26 05:23:34;;;;;;;17.75;10.63;;;0.50;93.80;;;;;;4988707;28;20094;-79
2022/02/26 05:26:00;;;;;;;19.70;11.25;;;0.60;93.70;;;;;;5003072;28;20109;-80
2022/02/26 05:28:25;;;;;;;16.15;10.55;;;0.60;93.60;;;;;;5011277;28;20386;-80
2022/02/26 05:30:51;;;;;;;17.63;11.10;;;0.70;93.50;;;;;;5018603;28;20026;-81
2022/02/26 05:33:17;;;;;;;16.92;12.13;;;0.80;93.50;;;;;;5001010;28;20034;-80
2022/02/26 05:35:43;;;;;;;19.60;11.40;;;0.80;93.40;;;;;;5007032;28;20038;-81
2022/02/26 05:38:09;;;;;;;15.57;10.77;;;0.90;93.60;;;;;;5018797;28;20030;-81
2022/02/26 05:40:35;;;;;;;19.83;12.63;;;1.10;93.20;;;;;;5016571;28;20045;-81
2022/02/26 05:43:00;;;;;;;16.35;11.05;;;1.10;93.10;;;;;;5018625;28;20026;-81
2022/02/26 05:45:26;;;;;;;19.73;11.35;;;1.20;93.00;;;;;;5018923;28;20018;-82
2022/02/26 05:47:52;;;;;;;19.70;12.55;;;1.30;92.70;;;;;;5022615;28;20033;-81
2022/02/26 05:50:18;;;;;;;17.55;11.70;;;1.30;92.50;;;;;;5024088;28;20030;-80
2022/02/26 05:52:44;;;;;;;16.85;11.95;;;1.30;92.50;;;;;;5023843;28;20033;-82
2022/02/26 05:55:11;;;;;;;18.30;11.82;;;1.40;92.50;;;;;;5017388;28;20026;-79
2022/02/26 05:57:37;;;;;;;15.77;12.30;;;1.40;92.40;;;;;;5009338;28;20030;-79
2022/02/26 06:00:05;;;;;;;19.35;11.10;;;1.50;92.30;;;;;;5022301;28;20026;-80
2022/02/26 06:02:30;;;;;;;;;;;1.60;92.20;;;;;;5018867;28;20026;-80
2022/02/26 06:04:57;;;;;;;16.65;11.13;;;1.60;92.20;;;;;;5022944;28;19966;-80
2022/02/26 06:07:23;;;;;;;18.80;11.63;;;1.60;92.00;;;;;;5026630;28;20025;-83
2022/02/26 06:09:49;;;;;;;17.25;11.45;;;1.70;92.00;;;;;;5028692;28;20061;-82
2022/02/26 06:12:15;;;;;;;14.52;10.18;;;1.70;92.00;;;;;;5027664;28;20049;-80
2022/02/26 06:14:42;;;;;;;19.63;11.48;;;1.70;91.90;;;;;;5019928;28;20026;-83
2022/02/26 06:17:07;;;;;;;19.50;11.00;;;1.80;91.80;;;;;;5018713;28;20475;-81
2022/02/26 06:19:33;;;;;;;19.30;11.20;;;1.80;91.60;;;;;;5018833;28;20106;-82
2022/02/26 06:21:59;;;;;;;17.70;10.35;;;1.90;91.60;;;;;;4999669;28;20057;-81
2022/02/26 06:24:26;;;;;;;15.68;11.80;;;1.90;91.50;;;;;;5018475;28;20030;-82
2022/02/26 06:26:51;;;;;;;19.48;11.82;;;1.90;91.50;;;;;;5017983;28;20018;-81
2022/02/26 06:29:17;;;;;;;16.23;11.23;;;2.00;91.40;;;;;;5018694;28;20037;-81
2022/02/26 06:31:43;;;;;;;16.65;11.70;;;2.00;91.20;;;;;;5018739;28;20038;-82
2022/02/26 06:34:09;;;;;;;19.33;10.93;;;2.10;91.20;;;;;;5018422;28;20052;-83
2022/02/26 06:36:36;;;;;;;15.77;10.40;;;2.10;91.20;;;;;;5023893;28;20045;-83
2022/02/26 06:39:03;;;;;;;14.13;10.73;;;2.10;91.10;;;;;;5019642;28;20025;-81
2022/02/26 06:41:30;;;;;;;16.48;10.63;;;2.20;91.10;;;;;;5020997;28;20372;-82
2022/02/26 06:43:57;;;;;;;18.95;12.23;;;2.20;91.00;;;;;;5020456;28;20018;-81
2022/02/26 06:46:23;;;;;;;17.17;11.73;;;2.20;90.90;;;;;;5018713;28;20026;-80
2022/02/26 06:48:51;;;;;;;18.27;10.45;;;2.20;90.90;;;;;;5021933;28;20085;-80
2022/02/26 06:51:17;;;;;;;15.57;10.05;;;2.30;90.90;;;;;;5002157;28;20041;-81
2022/02/26 06:53:43;;;;;;;16.48;10.95;;;2.30;90.80;;;;;;5018488;28;20022;-79
2022/02/26 06:56:09;;;;;;;17.88;12.57;;;2.30;90.90;;;;;;5023612;28;20026;-77
2022/02/26 06:58:35;;;;;;;20.42;12.13;;;2.30;90.90;;;;;;5023309;28;20026;-83
2022/02/26 07:01:01;;;;;;;18.52;11.02;;;2.40;90.80;;;;;;5017678;28;20080;-81
2022/02/26 07:03:27;;;;;;;29.15;11.30;;;2.40;90.70;;;;;;5000285;28;20118;-80
2022/02/26 07:05:52;;;;;;;20.77;11.27;;;2.50;90.70;;;;;;5001634;28;20487;-82
2022/02/26 07:08:18;;;;;;;17.85;10.95;;;2.50;90.70;;;;;;5018704;28;20033;-82
2022/02/26 07:10:45;;;;;;;19.17;11.32;;;2.60;90.80;;;;;;5018564;28;20515;-82
2022/02/26 07:13:10;;;;;;;19.83;11.35;;;2.60;90.60;;;;;;5016809;28;20037;-79
2022/02/26 07:15:37;;;;;;;20.90;12.38;;;2.70;90.50;;;;;;5016652;28;20041;-83
2022/02/26 07:18:03;;;;;;;26.25;11.38;;;2.70;90.40;;;;;;5017387;28;20044;-80
2022/02/26 07:20:29;;;;;;;17.23;10.63;;;2.60;90.30;;;;;;5019286;28;20481;-82
2022/02/26 07:22:55;;;;;;;15.38;9.75;;;2.60;90.30;;;;;;5014547;28;20034;-82
2022/02/26 07:25:21;;;;;;;19.25;11.38;;;2.60;90.30;;;;;;5015083;28;20076;-80
2022/02/26 07:27:46;;;;;;;16.90;12.25;;;2.70;90.40;;;;;;5014749;28;20102;-82
2022/02/26 07:30:12;;;;;;;19.75;11.13;;;2.70;90.30;;;;;;5016188;28;20029;-82
2022/02/26 07:32:38;;;;;;;12.50;9.40;;;2.70;90.20;;;;;;5016375;28;20065;-83
2022/02/26 07:35:05;;;;;;;19.92;11.63;;;2.80;90.20;;;;;;5027991;28;20014;-82
2022/02/26 07:37:32;;;;;;;14.30;10.90;;;2.80;90.10;;;;;;5027307;28;20041;-81
2022/02/26 07:39:58;;;;;;;16.55;11.98;;;2.90;90.00;;;;;;5002895;28;20059;-82
2022/02/26 07:42:26;;;;;;;18.70;10.95;;;3.00;89.80;;;;;;5018535;28;20022;-81
2022/02/26 07:44:52;;;;;;;16.92;11.10;;;3.10;89.70;;;;;;5018286;28;20037;-83
2022/02/26 07:47:18;;;;;;;14.52;10.75;;;3.10;89.60;;;;;;5000082;28;20455;-82
2022/02/26 07:49:44;;;;;;;18.40;10.02;;;3.20;89.20;;;;;;5017429;28;20029;-83
2022/02/26 07:52:09;;;;;;;12.13;8.95;;;3.20;88.90;;;;;;5019698;28;20487;-82
2022/02/26 07:54:35;;;;;;;16.75;9.68;;;3.20;88.50;;;;;;5018081;28;20097;-84
2022/02/26 07:57:01;;;;;;;12.45;8.90;;;3.20;88.30;;;;;;5015518;28;20112;-82
2022/02/26 07:59:27;;;;;;;15.82;8.80;;;3.10;88.40;;;;;;5012767;28;20056;-80
2022/02/26 08:01:56;;;;;;;14.25;8.85;;;3.20;88.70;;;;;;5015903;28;20033;-82
2022/02/26 08:04:22;;;;;;;17.65;9.15;;;3.20;88.50;;;;;;5014402;28;20034;-81
2022/02/26 08:06:47;;;;;;;14.45;8.88;;;3.20;88.50;;;;;;5024016;28;20017;-82
2022/02/26 08:09:14;;;;;;;19.73;9.93;;;3.20;88.20;;;;;;5022340;28;20080;-81
2022/02/26 08:11:40;;;;;;;14.68;8.80;;;3.20;88.10;;;;;;5021925;28;20640;-83
2022/02/26 08:14:07;;;;;;;16.13;9.38;;;3.10;87.90;;;;;;5020456;28;20025;-80
2022/02/26 08:16:33;;;;;;;17.50;8.07;;;3.20;88.20;;;;;;5021338;28;20483;-84
2022/02/26 08:18:59;;;;;;;12.18;8.60;;;3.20;88.20;;;;;;4996558;28;20080;-81
2022/02/26 08:21:26;;;;;;;13.05;7.50;;;3.20;88.00;;;;;;4971887;28;20038;-82
2022/02/26 08:23:52;;;;;;;15.63;8.65;;;3.30;87.90;;;;;;4999832;28;20028;-83
2022/02/26 08:26:19;;;;;;;17.48;9.45;;;3.30;87.80;;;;;;5023098;28;20057;-81
2022/02/26 08:28:46;;;;;;;22.65;10.82;;;3.20;87.40;;;;;;5019254;28;20042;-79
2022/02/26 08:31:12;;;;;;;16.52;8.90;;;3.30;87.50;;;;;;5017450;28;20037;-82
2022/02/26 08:33:38;;;;;;;13.82;8.95;;;3.40;87.60;;;;;;5021389;28;20118;-80
2022/02/26 08:36:04;;;;;;;13.52;9.45;;;3.50;88.00;;;;;;5012015;28;20034;-81
2022/02/26 08:38:30;;;;;;;19.23;9.23;;;3.60;87.10;;;;;;5015191;28;20409;-83
2022/02/26 08:40:56;;;;;;;19.02;9.88;;;3.60;86.70;;;;;;5005116;28;20026;-82
2022/02/26 08:43:24;;;;;;;15.75;9.75;;;3.60;86.70;;;;;;5019597;28;20025;-82
2022/02/26 08:45:50;;;;;;;10.50;7.93;;;3.70;86.40;;;;;;4986098;28;20032;-81
2022/02/26 08:48:16;;;;;;;12.65;9.13;;;3.60;85.90;;;;;;5023281;28;20049;-80
2022/02/26 08:50:42;;;;;;;12.50;7.70;;;3.70;86.20;;;;;;5010346;28;20069;-80
2022/02/26 08:53:08;;;;;;;14.15;6.70;;;3.70;86.00;;;;;;5019002;28;20020;-84
2022/02/26 08:55:34;;;;;;;20.48;7.47;;;3.80;85.60;;;;;;5021536;28;20537;-79
2022/02/26 08:58:00;;;;;;;15.00;8.10;;;3.60;85.40;;;;;;5033952;28;20040;-79
2022/02/26 09:00:28;;;;;;;16.90;7.25;;;3.60;85.70;;;;;;5028683;28;20125;-82
2022/02/26 09:02:55;;;;;;;17.08;8.20;;;3.60;85.50;;;;;;5022637;28;20018;-85
2022/02/26 09:05:21;;;;;;;19.17;9.27;;;3.60;85.70;;;;;;5018962;28;20052;-84
2022/02/26 09:07:47;;;;;;;12.45;8.07;;;3.60;85.80;;;;;;5005823;28;20037;-82
2022/02/26 09:10:15;;;;;;;17.38;9.13;;;3.70;86.00;;;;;;5024423;28;20094;-86
2022/02/26 09:12:42;;;;;;;15.60;8.13;;;3.70;85.70;;;;;;5025025;28;20026;-82
2022/02/26 09:15:08;;;;;;;13.13;8.38;;;3.80;85.50;;;;;;5026388;28;20022;-83
2022/02/26 09:17:34;;;;;;;17.65;9.45;;;3.90;85.10;;;;;;5028376;28;20032;-83
2022/02/26 09:20:00;;;;;;;14.15;8.18;;;3.90;85.10;;;;;;5016974;28;20023;-81
2022/02/26 09:22:26;;;;;;;15.43;9.23;;;3.90;84.90;;;;;;5023477;28;20111;-83
2022/02/26 09:24:52;;;;;;;12.98;7.97;;;4.00;85.00;;;;;;5004204;28;20026;-84
2022/02/26 09:27:18;;;;;;;11.70;7.70;;;4.00;84.90;;;;;;5007162;28;20029;-84
2022/02/26 09:29:45;;;;;;;15.57;8.65;;;4.10;84.50;;;;;;5010454;28;20022;-83
2022/02/26 09:32:11;;;;;;;11.53;7.10;;;4.10;84.10;;;;;;5006572;28;20580;-84
2022/02/26 09:34:39;;;;;;;14.05;7.78;;;4.10;83.90;;;;;;5023611;28;20026;-85
2022/02/26 09:37:09;;;;;;;12.55;7.38;;;4.20;83.80;;;;;;4986554;28;20059;-85
2022/02/26 09:39:35;;;;;;;14.65;7.65;;;4.20;83.60;;;;;;4969031;28;20050;-84
2022/02/26 09:42:02;;;;;;;12.80;8.23;;;4.20;83.30;;;;;;4983074;28;20070;-84
2022/02/26 09:44:28;;;;;;;12.27;6.55;;;4.10;83.40;;;;;;4975185;28;20038;-80
2022/02/26 09:46:58;;;;;;;17.25;8.30;;;4.10;83.50;;;;;;4977973;28;20035;-81
2022/02/26 09:49:23;;;;;;;11.13;7.50;;;4.10;83.50;;;;;;4960371;28;20049;-81
2022/02/26 09:51:49;;;;;;;15.95;7.75;;;4.10;83.30;;;;;;4978286;28;20610;-80
2022/02/26 09:54:16;;;;;;;14.65;8.68;;;4.20;83.40;;;;;;4974931;28;20548;-81
2022/02/26 09:56:43;;;;;;;11.80;7.05;;;4.10;83.40;;;;;;4977491;28;20045;-80
2022/02/26 09:59:11;;;;;;;13.55;7.72;;;4.10;83.20;;;;;;4974595;28;20034;-81
2022/02/26 10:01:57;;;;;;;11.70;7.70;;;4.20;83.10;;;;;;4974987;28;20453;-80
2022/02/26 10:04:23;;;;;;;19.48;9.75;;;4.20;82.90;;;;;;4960449;28;20058;-80
2022/02/26 10:06:49;;;;;;;8.93;5.72;;;4.20;82.80;;;;;;4954388;29;20385;-81
2022/02/26 10:09:15;;;;;;;11.48;7.57;;;4.20;82.50;;;;;;4994888;28;20029;-80
2022/02/26 10:11:42;;;;;;;15.40;6.28;;;4.20;82.40;;;;;;5013670;28;20058;-82
2022/02/26 10:14:07;;;;;;;8.15;5.93;;;4.10;82.30;;;;;;4995461;28;20057;-82
2022/02/26 10:16:44;;;;;;;9.85;7.25;;;4.10;82.50;;;;;;4977649;28;20042;-77
2022/02/26 10:19:10;;;;;;;44.55;12.73;;;4.00;82.70;;;;;;5007035;28;20416;-84
2022/02/26 10:21:41;;;;;;;18.60;9.30;;;4.00;82.90;;;;;;5003802;28;20039;-80
2022/02/26 10:24:07;;;;;;;12.98;7.47;;;4.00;83.30;;;;;;4995606;28;20061;-78
2022/02/26 10:26:33;;;;;;;13.15;6.57;;;4.10;83.30;;;;;;4994705;28;20384;-78
2022/02/26 10:29:08;;;;;;;14.48;6.47;;;4.10;82.80;;;;;;4996340;28;20069;-78
2022/02/26 10:31:48;;;;;;;10.65;6.40;;;4.10;82.70;;;;;;4994653;28;20126;-80
2022/02/26 10:34:32;;;;;;;8.80;6.15;;;4.20;82.70;;;;;;4995554;28;20045;-79
2022/02/26 10:37:00;;;;;;;11.68;5.95;;;4.20;82.50;;;;;;5013692;28;20034;-78
2022/02/26 10:39:32;;;;;;;14.40;7.03;;;4.30;82.50;;;;;;5017490;28;20117;-80
2022/02/26 10:41:59;;;;;;;10.55;5.80;;;4.30;82.10;;;;;;4998917;28;20048;-81
2022/02/26 10:44:26;;;;;;;15.95;7.15;;;4.30;81.80;;;;;;4999525;28;20068;-83
2022/02/26 10:46:52;;;;;;;11.93;6.05;;;4.20;82.00;;;;;;5002300;28;20083;-81
2022/02/26 10:49:19;;;;;;;16.27;7.00;;;4.30;82.20;;;;;;5032353;28;20014;-83
2022/02/26 10:51:47;;;;;;;11.82;7.88;;;4.30;82.10;;;;;;5038352;28;20105;-83
2022/02/26 10:54:24;;;;;;;13.55;6.43;;;4.30;81.90;;;;;;5035111;28;20038;-83
2022/02/26 10:56:51;;;;;;;13.05;9.00;;;4.20;82.00;;;;;;5000318;28;20127;-81
2022/02/26 10:59:31;;;;;;;13.73;6.47;;;4.30;82.10;;;;;;4998398;28;20075;-77
2022/02/26 11:02:03;;;;;;;12.98;7.93;;;4.20;81.90;;;;;;4999496;28;20026;-78
2022/02/26 11:04:29;;;;;;;10.20;6.65;;;4.20;82.20;;;;;;5014674;28;20487;-81
2022/02/26 11:06:55;;;;;;;11.23;5.85;;;4.20;82.10;;;;;;5015903;28;20125;-79
2022/02/26 11:09:22;;;;;;;12.95;5.82;;;4.30;82.10;;;;;;5020500;28;20033;-79
2022/02/26 11:11:50;;;;;;;12.07;6.63;;;4.40;82.10;;;;;;5017091;28;20116;-81
2022/02/26 11:14:21;;;;;;;11.43;5.85;;;4.50;81.80;;;;;;5015972;28;20048;-79
2022/02/26 11:16:55;;;;;;;7.72;4.80;;;4.60;81.20;;;;;;5016834;28;20026;-79
2022/02/26 11:19:24;;;;;;;9.27;5.45;;;4.70;80.70;;;;;;5016012;28;20126;-79
2022/02/26 11:21:51;;;;;;;14.05;4.32;;;4.70;80.40;;;;;;4996712;28;20034;-79
2022/02/26 11:24:17;;;;;;;8.13;3.47;;;4.60;79.90;;;;;;5013038;28;20033;-80
2022/02/26 11:26:45;;;;;;;7.68;4.70;;;4.50;79.80;;;;;;4997328;28;20443;-80
2022/02/26 11:29:13;;;;;;;11.52;5.72;;;4.40;80.60;;;;;;5013634;28;20108;-79
2022/02/26 11:31:48;;;;;;;7.38;3.83;;;4.40;80.30;;;;;;5013224;28;20030;-81
2022/02/26 11:34:22;;;;;;;6.90;4.30;;;4.30;80.10;;;;;;5014619;28;20081;-84
2022/02/26 11:37:02;;;;;;;7.30;4.47;;;4.20;80.30;;;;;;5016832;28;20034;-83
2022/02/26 11:39:34;;;;;;;8.18;3.90;;;4.20;80.30;;;;;;4996071;28;20036;-84
2022/02/26 11:42:18;;;;;;;5.40;3.30;;;4.20;80.30;;;;;;4999219;28;20051;-81
2022/02/26 11:44:53;;;;;;;12.98;4.65;;;4.10;80.30;;;;;;5015699;28;20550;-80
2022/02/26 11:47:21;;;;;;;12.40;4.03;;;4.20;80.60;;;;;;4998624;28;20403;-77
2022/02/26 11:50:07;;;;;;;6.75;3.80;;;4.20;80.30;;;;;;5016432;28;20038;-79
2022/02/26 11:52:41;;;;;;;10.95;3.70;;;4.20;79.80;;;;;;5015782;28;20050;-79
2022/02/26 11:55:25;;;;;;;5.43;3.47;;;4.20;79.70;;;;;;5019957;28;20037;-78
2022/02/26 11:57:54;;;;;;;9.25;4.40;;;4.40;79.70;;;;;;5015891;28;20022;-79
2022/02/26 12:00:21;;;;;;;5.72;3.80;;;4.60;79.30;;;;;;5012949;28;20018;-76
2022/02/26 12:03:15;;;;;;;9.00;4.00;;;4.80;78.70;;;;;;5013845;28;20084;-79
2022/02/26 12:05:41;;;;;;;6.70;3.10;;;5.00;77.30;;;;;;5013674;28;20030;-79
2022/02/26 12:08:12;;;;;;;11.38;4.35;;;5.10;76.90;;;;;;5013116;28;20041;-81
2022/02/26 12:10:38;;;;;;;14.73;4.38;;;5.10;76.80;;;;;;5013632;28;20030;-79
2022/02/26 12:13:29;;;;;;;12.13;3.95;;;5.10;76.60;;;;;;5013515;28;20033;-81
2022/02/26 12:16:18;;;;;;;8.85;4.78;;;5.10;76.00;;;;;;5013647;28;20037;-80
2022/02/26 12:19:04;;;;;;;11.13;6.47;;;5.10;76.20;;;;;;5013510;28;20026;-81
2022/02/26 12:21:38;;;;;;;14.52;6.00;;;5.10;76.20;;;;;;4995146;28;20110;-81
2022/02/26 12:24:12;;;;;;;10.65;4.78;;;5.20;76.00;;;;;;4994618;28;20074;-83
2022/02/26 12:27:00;;;;;;;9.95;5.03;;;5.30;75.90;;;;;;4997715;28;20022;-83
2022/02/26 12:29:26;;;;;;;11.00;4.60;;;5.40;75.30;;;;;;5014101;28;20084;-81
2022/02/26 12:32:05;;;;;;;9.35;3.85;;;5.40;75.00;;;;;;5017990;28;20033;-80
2022/02/26 12:34:37;;;;;;;6.38;3.28;;;5.40;74.40;;;;;;5018567;28;20038;-84
2022/02/26 12:37:09;;;;;;;9.40;4.60;;;5.40;74.60;;;;;;5016975;28;20557;-84
2022/02/26 12:39:40;;;;;;;13.95;6.45;;;5.30;74.50;;;;;;5016896;28;20028;-83
2022/02/26 12:42:08;;;;;;;17.63;7.80;;;5.30;74.80;;;;;;4982410;28;20037;-81
2022/02/26 12:44:42;;;;;;;10.27;4.80;;;5.40;74.70;;;;;;5027904;28;20014;-83
2022/02/26 12:47:08;;;;;;;11.95;3.85;;;5.40;74.60;;;;;;5017820;28;20018;-78